createdAt,value
2018-11-21T00:00:19.977Z,100874.28
2018-11-21T00:02:48.723Z,100872.10
2018-11-21T00:05:16.847Z,100872.03
2018-11-21T00:07:44.960Z,100868.56
2018-11-21T00:10:13.397Z,100869.78
2018-11-21T00:12:44.037Z,100877.70
2018-11-21T00:15:12.102Z,100869.29
2018-11-21T00:17:40.135Z,100863.27
2018-11-21T00:20:09.790Z,100862.30
2018-11-21T00:22:37.972Z,100858.70
2018-11-21T00:25:06.065Z,100846.48
2018-11-21T00:27:34.148Z,100854.00
2018-11-21T00:30:02.196Z,100853.08
2018-11-21T00:32:30.225Z,100854.68
2018-11-21T00:34:58.302Z,100853.71
2018-11-21T00:37:26.406Z,100848.30
2018-11-21T00:39:54.697Z,100846.00
2018-11-21T00:42:22.753Z,100852.95
2018-11-21T00:44:50.818Z,100848.38
2018-11-21T00:47:18.849Z,100859.48
2018-11-21T00:49:46.963Z,100853.52
2018-11-21T00:52:14.983Z,100853.21
2018-11-21T00:54:43.124Z,100853.30
2018-11-21T00:57:11.190Z,100855.50
2018-11-21T00:59:40.230Z,100858.69
2018-11-21T01:02:07.760Z,100861.11
2018-11-21T01:04:35.800Z,100864.13
2018-11-21T01:07:03.875Z,100856.53
2018-11-21T01:09:31.942Z,100862.92
2018-11-21T01:12:00.019Z,100865.95
2018-11-21T01:14:28.047Z,100851.77
2018-11-21T01:16:56.127Z,100869.25
2018-11-21T01:19:24.334Z,100859.27
2018-11-21T01:21:52.342Z,100863.16
2018-11-21T01:24:20.413Z,100868.38
2018-11-21T01:26:48.621Z,100867.55
2018-11-21T01:29:16.649Z,100882.32
2018-11-21T01:31:44.727Z,100882.98
2018-11-21T01:34:12.854Z,100880.73
2018-11-21T01:36:40.955Z,100876.06
2018-11-21T01:39:10.453Z,100874.11
2018-11-21T01:41:38.644Z,100874.36
2018-11-21T01:44:07.123Z,100877.83
2018-11-21T01:46:35.833Z,100876.54
2018-11-21T01:49:03.897Z,100877.87
2018-11-21T01:51:32.447Z,100875.98
2018-11-21T01:54:00.604Z,100872.76
2018-11-21T01:56:28.700Z,100875.42
2018-11-21T01:58:56.846Z,100871.81
2018-11-21T02:01:24.906Z,100879.91
2018-11-21T02:03:53.017Z,100883.64
2018-11-21T02:06:21.025Z,100885.83
2018-11-21T02:08:49.139Z,100880.59
2018-11-21T02:11:17.191Z,100881.34
2018-11-21T02:13:45.298Z,100884.32
2018-11-21T02:16:13.373Z,100873.92
2018-11-21T02:18:41.408Z,100872.66
2018-11-21T02:21:09.481Z,100883.39
2018-11-21T02:23:37.528Z,100884.90
2018-11-21T02:26:05.928Z,100890.94
2018-11-21T02:28:33.975Z,100890.16
2018-11-21T02:31:02.076Z,100887.31
2018-11-21T02:33:30.102Z,100887.86
2018-11-21T02:35:58.182Z,100883.08
2018-11-21T02:38:26.200Z,100880.73
2018-11-21T02:40:54.237Z,100886.80
2018-11-21T02:43:22.306Z,100887.58
2018-11-21T02:45:50.344Z,100884.05
2018-11-21T02:48:18.570Z,100888.44
2018-11-21T02:50:46.608Z,100882.44
2018-11-21T02:53:14.714Z,100884.31
2018-11-21T02:55:42.739Z,100889.53
2018-11-21T02:58:10.816Z,100887.16
2018-11-21T03:00:38.837Z,100893.63
2018-11-21T03:03:08.444Z,100889.74
2018-11-21T03:05:36.440Z,100889.41
2018-11-21T03:08:04.683Z,100887.06
2018-11-21T03:10:32.775Z,100898.28
2018-11-21T03:13:00.849Z,100897.17
2018-11-21T03:15:28.899Z,100899.86
2018-11-21T03:17:56.940Z,100901.94
2018-11-21T03:20:25.010Z,100906.90
2018-11-21T03:22:53.080Z,100902.27
2018-11-21T03:25:21.137Z,100907.12
2018-11-21T03:27:49.170Z,100915.06
2018-11-21T03:30:17.352Z,100917.84
2018-11-21T03:32:45.387Z,100924.83
2018-11-21T03:35:13.460Z,100923.89
2018-11-21T03:37:41.526Z,100933.57
2018-11-21T03:40:11.224Z,100936.98
2018-11-21T03:42:39.618Z,100938.21
2018-11-21T03:45:09.435Z,100940.11
2018-11-21T03:47:37.512Z,100941.09
2018-11-21T03:50:07.472Z,100932.04
2018-11-21T03:52:35.548Z,100934.01
2018-11-21T03:55:03.613Z,100939.64
2018-11-21T03:57:31.710Z,100942.59
2018-11-21T03:59:59.746Z,100942.66
2018-11-21T04:02:27.853Z,100951.09
2018-11-21T04:04:55.901Z,100945.55
2018-11-21T04:07:23.995Z,100946.61
2018-11-21T04:09:52.068Z,100951.20
2018-11-21T04:12:20.143Z,100955.25
2018-11-21T04:14:48.185Z,100953.44
2018-11-21T04:17:16.189Z,100958.00
2018-11-21T04:19:44.304Z,100964.81
2018-11-21T04:22:12.361Z,100967.98
2018-11-21T04:24:40.445Z,100967.70
2018-11-21T04:27:08.484Z,100960.06
2018-11-21T04:29:36.566Z,100960.06
2018-11-21T04:32:04.611Z,100960.94
2018-11-21T04:34:32.675Z,100956.00
2018-11-21T04:37:00.744Z,100946.09
2018-11-21T04:39:28.812Z,100947.95
2018-11-21T04:41:56.842Z,100951.64
2018-11-21T04:44:24.960Z,100949.00
2018-11-21T04:46:52.963Z,100946.92
2018-11-21T04:49:21.026Z,100960.58
2018-11-21T04:51:49.099Z,100965.73
2018-11-21T04:54:17.298Z,100969.60
2018-11-21T04:56:45.359Z,100977.30
2018-11-21T04:59:13.399Z,100970.42
2018-11-21T05:01:41.523Z,100977.89
2018-11-21T05:04:09.597Z,100985.53
2018-11-21T05:06:37.853Z,100995.23
2018-11-21T05:09:09.116Z,100983.77
2018-11-21T05:11:37.226Z,100990.70
2018-11-21T05:14:05.499Z,101006.13
2018-11-21T05:16:33.871Z,101007.44
2018-11-21T05:19:01.900Z,101000.64
2018-11-21T05:21:29.943Z,101010.52
2018-11-21T05:23:58.001Z,101011.15
2018-11-21T05:26:26.060Z,101022.48
2018-11-21T05:28:54.100Z,101023.58
2018-11-21T05:31:22.188Z,101025.72
2018-11-21T05:33:50.261Z,101025.08
2018-11-21T05:36:18.318Z,101030.69
2018-11-21T05:38:46.416Z,101024.66
2018-11-21T05:41:14.493Z,101023.47
2018-11-21T05:43:42.631Z,101025.86
2018-11-21T05:46:10.706Z,101030.66
2018-11-21T05:48:38.841Z,101035.83
2018-11-21T05:51:06.874Z,101029.22
2018-11-21T05:53:34.895Z,101034.22
2018-11-21T05:56:02.973Z,101045.62
2018-11-21T05:58:31.079Z,101047.70
2018-11-21T06:00:59.125Z,101048.92
2018-11-21T06:03:27.210Z,101052.21
2018-11-21T06:05:55.295Z,101053.52
2018-11-21T06:08:23.347Z,101046.87
2018-11-21T06:10:51.554Z,101055.54
2018-11-21T06:13:19.716Z,101054.48
2018-11-21T06:15:47.701Z,101066.69
2018-11-21T06:18:15.731Z,101064.79
2018-11-21T06:20:43.793Z,101061.84
2018-11-21T06:23:11.996Z,101066.11
2018-11-21T06:25:40.080Z,101071.80
2018-11-21T06:28:08.141Z,101068.20
2018-11-21T06:30:36.227Z,101076.59
2018-11-21T06:33:04.858Z,101087.19
2018-11-21T06:35:32.925Z,101078.81
2018-11-21T06:38:01.000Z,101090.70
2018-11-21T06:40:29.098Z,101090.02
2018-11-21T06:42:58.373Z,101090.75
2018-11-21T06:45:27.591Z,101086.03
2018-11-21T06:47:55.653Z,101087.72
2018-11-21T06:50:23.695Z,101092.87
2018-11-21T06:52:52.167Z,101101.86
2018-11-21T06:55:20.220Z,101107.77
2018-11-21T06:57:48.404Z,101106.12
2018-11-21T07:00:16.436Z,101103.86
2018-11-21T07:02:44.471Z,101114.63
2018-11-21T07:05:12.594Z,101124.77
2018-11-21T07:07:40.634Z,101131.03
2018-11-21T07:10:11.532Z,101121.39
2018-11-21T07:12:39.606Z,101121.72
2018-11-21T07:15:08.071Z,101127.23
2018-11-21T07:17:36.125Z,101127.51
2018-11-21T07:20:24.037Z,101140.58
2018-11-21T07:22:52.095Z,101136.59
2018-11-21T07:25:21.621Z,101139.09
2018-11-21T07:27:49.648Z,101140.27
2018-11-21T07:30:18.180Z,101155.20
2018-11-21T07:32:46.185Z,101157.97
2018-11-21T07:35:18.150Z,101157.20
2018-11-21T07:37:43.059Z,101164.98
2018-11-21T07:40:12.696Z,101159.22
2018-11-21T07:42:40.944Z,101161.36
2018-11-21T07:45:10.808Z,101160.41
2018-11-21T07:47:39.487Z,101170.13
2018-11-21T07:50:26.703Z,101161.34
2018-11-21T07:52:54.782Z,101165.14
2018-11-21T07:55:22.928Z,101171.34
2018-11-21T07:57:52.616Z,101164.69
2018-11-21T08:01:09.664Z,101179.63
2018-11-21T08:03:57.012Z,101185.53
2018-11-21T08:06:31.574Z,101182.59
2018-11-21T08:09:18.816Z,101188.88
2018-11-21T08:12:06.011Z,101180.59
2018-11-21T08:14:53.276Z,101178.45
2018-11-21T08:17:40.481Z,101185.92
2018-11-21T08:20:28.909Z,101179.99
2018-11-21T08:23:16.175Z,101182.29
2018-11-21T08:26:03.440Z,101180.77
2018-11-21T08:28:31.698Z,101174.00
2018-11-21T08:30:59.823Z,101171.47
2018-11-21T08:33:33.911Z,101176.41
2018-11-21T08:35:56.825Z,101176.50
2018-11-21T08:38:24.946Z,101177.75
2018-11-21T08:40:52.971Z,101183.07
2018-11-21T08:43:21.020Z,101176.92
2018-11-21T08:45:49.131Z,101179.30
2018-11-21T08:48:18.057Z,101182.84
2018-11-21T08:50:46.119Z,101188.82
2018-11-21T08:53:14.195Z,101185.52
2018-11-21T08:55:42.401Z,101186.72
2018-11-21T08:58:10.527Z,101190.72
2018-11-21T09:00:38.600Z,101195.94
2018-11-21T09:03:07.129Z,101193.70
2018-11-21T09:05:35.155Z,101201.44
2018-11-21T09:08:03.538Z,101195.06
2018-11-21T09:12:59.283Z,101196.54
2018-11-21T09:15:27.365Z,101210.80
2018-11-21T09:17:55.404Z,101214.58
2018-11-21T09:20:23.478Z,101218.28
2018-11-21T09:22:51.525Z,101211.83
2018-11-21T09:25:19.606Z,101218.97
2018-11-21T09:27:47.749Z,101215.49
2018-11-21T09:30:19.773Z,101217.02
2018-11-21T09:32:49.386Z,101220.11
2018-11-21T09:35:18.173Z,101228.19
2018-11-21T09:37:46.252Z,101224.52
2018-11-21T09:40:34.232Z,101222.33
2018-11-21T09:43:02.311Z,101223.29
2018-11-21T09:45:30.389Z,101221.52
2018-11-21T09:47:58.496Z,101217.47
2018-11-21T09:50:28.068Z,101228.08
2018-11-21T09:52:56.160Z,101240.97
2018-11-21T09:55:24.265Z,101233.94
2018-11-21T09:57:52.340Z,101238.42
2018-11-21T10:00:58.710Z,101235.20
2018-11-21T10:03:28.730Z,101243.97
2018-11-21T10:06:35.138Z,101238.30
2018-11-21T10:09:22.371Z,101243.09
2018-11-21T10:11:50.476Z,101245.08
2018-11-21T10:14:18.627Z,101251.98
2018-11-21T10:16:46.766Z,101247.47
2018-11-21T10:21:49.700Z,101253.31
2018-11-21T10:24:17.884Z,101253.22
2018-11-21T10:26:45.923Z,101264.78
2018-11-21T10:29:14.062Z,101249.97
2018-11-21T10:31:42.165Z,101252.94
2018-11-21T10:34:10.239Z,101260.44
2018-11-21T10:36:38.415Z,101261.72
2018-11-21T10:39:08.724Z,101270.32
2018-11-21T10:41:36.914Z,101269.54
2018-11-21T10:44:05.170Z,101274.52
2018-11-21T10:46:33.213Z,101270.33
2018-11-21T10:49:01.354Z,101268.12
2018-11-21T10:51:29.416Z,101273.80
2018-11-21T10:53:57.505Z,101270.61
2018-11-21T10:56:25.580Z,101267.59
2018-11-21T10:58:53.713Z,101269.56
2018-11-21T11:01:40.931Z,101271.73
2018-11-21T11:04:28.298Z,101258.77
2018-11-21T11:07:15.463Z,101265.73
2018-11-21T11:10:02.815Z,101259.27
2018-11-21T11:12:50.044Z,101261.85
2018-11-21T11:15:37.280Z,101266.18
2018-11-21T11:18:24.696Z,101263.24
2018-11-21T11:21:11.983Z,101263.05
2018-11-21T11:23:59.223Z,101261.28
2018-11-21T11:26:38.115Z,101260.32
2018-11-21T11:29:20.171Z,101272.23
2018-11-21T11:32:07.406Z,101268.75
2018-11-21T11:34:54.644Z,101267.98
2018-11-21T11:37:44.351Z,101270.86
2018-11-21T11:40:31.546Z,101262.27
2018-11-21T11:43:18.807Z,101273.41
2018-11-21T11:46:06.169Z,101274.34
2018-11-21T11:48:53.535Z,101281.64
2018-11-21T11:51:40.757Z,101282.68
2018-11-21T11:54:28.080Z,101278.80
2018-11-21T11:57:15.363Z,101285.09
2018-11-21T12:00:02.985Z,101275.68
2018-11-21T12:02:50.240Z,101275.55
2018-11-21T12:05:37.497Z,101290.30
2018-11-21T12:08:16.576Z,101279.96
2018-11-21T12:11:03.794Z,101296.39
2018-11-21T12:13:51.071Z,101279.56
2018-11-21T12:16:38.337Z,101285.22
2018-11-21T12:19:25.594Z,101282.70
2018-11-21T12:22:16.640Z,101286.50
2018-11-21T12:25:03.865Z,101278.72
2018-11-21T12:27:51.135Z,101290.06
2018-11-21T12:30:38.353Z,101283.13
2018-11-21T12:33:25.636Z,101286.09
2018-11-21T12:36:12.873Z,101293.80
2018-11-21T12:39:00.197Z,101291.16
2018-11-21T12:41:47.398Z,101285.56
2018-11-21T12:44:46.940Z,101285.70
2018-11-21T12:47:34.191Z,101282.02
2018-11-21T12:50:21.452Z,101276.02
2018-11-21T12:53:08.688Z,101288.50
2018-11-21T12:55:55.937Z,101285.52
2018-11-21T12:58:43.151Z,101291.34
2018-11-21T13:01:30.425Z,101293.77
2018-11-21T13:04:17.804Z,101288.21
2018-11-21T13:07:05.087Z,101288.64
2018-11-21T13:09:56.643Z,101284.64
2018-11-21T13:12:39.558Z,101277.55
2018-11-21T13:15:27.617Z,101288.38
2018-11-21T13:18:14.898Z,101272.52
2018-11-21T13:21:02.206Z,101278.17
2018-11-21T13:23:49.491Z,101274.11
2018-11-21T13:26:36.762Z,101284.31
2018-11-21T13:29:24.025Z,101283.36
2018-11-21T13:32:11.260Z,101278.56
2018-11-21T13:34:58.526Z,101287.02
2018-11-21T13:37:45.796Z,101277.45
2018-11-21T13:40:33.082Z,101283.26
2018-11-21T13:43:20.395Z,101280.95
2018-11-21T13:46:07.637Z,101282.76
2018-11-21T13:48:55.623Z,101286.66
2018-11-21T13:51:42.974Z,101287.30
2018-11-21T13:54:29.521Z,101289.17
2018-11-21T13:56:57.656Z,101283.27
2018-11-21T13:59:25.752Z,101288.44
2018-11-21T14:01:53.879Z,101285.30
2018-11-21T14:04:21.961Z,101288.79
2018-11-21T14:06:50.047Z,101295.44
2018-11-21T14:09:25.279Z,101299.23
2018-11-21T14:11:53.433Z,101292.69
2018-11-21T14:14:21.549Z,101296.56
2018-11-21T14:16:49.617Z,101294.09
2018-11-21T14:19:17.769Z,101297.66
2018-11-21T14:21:45.812Z,101293.89
2018-11-21T14:24:13.937Z,101299.69
2018-11-21T14:26:42.057Z,101303.44
2018-11-21T14:29:10.184Z,101293.63
2018-11-21T14:31:38.240Z,101290.80
2018-11-21T14:34:06.384Z,101296.80
2018-11-21T14:36:34.447Z,101296.02
2018-11-21T14:39:02.534Z,101291.34
2018-11-21T14:41:30.597Z,101293.98
2018-11-21T14:44:17.840Z,101299.45
2018-11-21T14:46:48.040Z,101308.54
2018-11-21T14:49:16.091Z,101308.20
2018-11-21T14:51:44.194Z,101303.38
2018-11-21T14:54:12.271Z,101301.99
2018-11-21T14:56:40.408Z,101304.54
2018-11-21T14:59:08.532Z,101301.67
2018-11-21T15:01:36.619Z,101311.03
2018-11-21T15:04:05.001Z,101304.43
2018-11-21T15:06:33.081Z,101304.31
2018-11-21T15:09:01.491Z,101318.12
2018-11-21T15:11:29.559Z,101320.94
2018-11-21T15:13:57.614Z,101326.34
2018-11-21T15:16:44.848Z,101331.16
2018-11-21T15:19:12.919Z,101329.53
2018-11-21T15:22:00.189Z,101329.42
2018-11-21T15:24:28.311Z,101324.28
2018-11-21T15:26:56.357Z,101335.46
2018-11-21T15:29:24.600Z,101339.66
2018-11-21T15:31:52.660Z,101334.91
2018-11-21T15:34:20.800Z,101331.39
2018-11-21T15:36:48.819Z,101332.55
2018-11-21T15:39:16.910Z,101335.41
2018-11-21T15:41:45.094Z,101340.69
2018-11-21T15:44:13.204Z,101340.35
2018-11-21T15:46:45.643Z,101344.12
2018-11-21T15:49:09.346Z,101340.08
2018-11-21T15:51:38.065Z,101345.70
2018-11-21T15:54:06.160Z,101343.03
2018-11-21T15:56:34.224Z,101345.16
2018-11-21T15:59:02.287Z,101348.20
2018-11-21T16:01:49.556Z,101353.63
2018-11-21T16:04:17.831Z,101359.95
2018-11-21T16:06:45.887Z,101362.23
2018-11-21T16:09:13.980Z,101359.69
2018-11-21T16:11:42.040Z,101355.50
2018-11-21T16:14:10.115Z,101358.91
2018-11-21T16:16:38.166Z,101365.92
2018-11-21T16:19:06.274Z,101364.25
2018-11-21T16:21:34.338Z,101369.33
2018-11-21T16:24:02.398Z,101370.14
2018-11-21T16:26:30.484Z,101367.80
2018-11-21T16:28:58.562Z,101372.73
2018-11-21T16:31:26.696Z,101373.20
2018-11-21T16:33:54.818Z,101383.83
2018-11-21T16:36:27.273Z,101381.05
2018-11-21T16:38:50.958Z,101388.20
2018-11-21T16:41:19.056Z,101387.58
2018-11-21T16:43:47.102Z,101392.56
2018-11-21T16:46:15.173Z,101391.59
2018-11-21T16:48:43.254Z,101389.40
2018-11-21T16:51:11.298Z,101397.94
2018-11-21T16:53:39.383Z,101395.80
2018-11-21T16:56:07.553Z,101404.61
2018-11-21T16:58:35.661Z,101403.83
2018-11-21T17:01:03.997Z,101408.73
2018-11-21T17:03:32.078Z,101413.84
2018-11-21T17:06:00.209Z,101411.91
2018-11-21T17:08:28.376Z,101407.28
2018-11-21T17:10:56.501Z,101411.67
2018-11-21T17:13:24.588Z,101415.52
2018-11-21T17:15:52.694Z,101413.42
2018-11-21T17:18:20.731Z,101407.22
2018-11-21T17:20:48.846Z,101421.03
2018-11-21T17:23:16.961Z,101424.36
2018-11-21T17:25:45.052Z,101422.02
2018-11-21T17:28:13.190Z,101427.30
2018-11-21T17:30:41.287Z,101426.34
2018-11-21T17:33:09.440Z,101426.92
2018-11-21T17:35:37.491Z,101427.54
2018-11-21T17:38:05.595Z,101437.23
2018-11-21T17:40:38.082Z,101431.92
2018-11-21T17:43:06.326Z,101433.72
2018-11-21T17:45:34.385Z,101434.27
2018-11-21T17:48:02.681Z,101432.87
2018-11-21T17:50:30.760Z,101434.55
2018-11-21T17:53:00.361Z,101431.16
2018-11-21T17:55:29.526Z,101428.33
2018-11-21T17:57:57.699Z,101432.81
2018-11-21T18:00:27.206Z,101435.64
2018-11-21T18:02:55.317Z,101433.84
2018-11-21T18:05:25.209Z,101442.78
2018-11-21T18:07:53.292Z,101442.88
2018-11-21T18:10:23.031Z,101437.50
2018-11-21T18:12:51.097Z,101436.74
2018-11-21T18:15:19.698Z,101440.32
2018-11-21T18:17:48.457Z,101439.91
2018-11-21T18:20:17.225Z,101445.54
2018-11-21T18:22:46.080Z,101445.31
2018-11-21T18:25:19.387Z,101444.91
2018-11-21T18:27:47.426Z,101450.94
2018-11-21T18:30:17.235Z,101453.05
2018-11-21T18:32:45.811Z,101455.62
2018-11-21T18:35:18.087Z,101452.18
2018-11-21T18:37:46.730Z,101452.92
2018-11-21T18:40:16.289Z,101449.90
2018-11-21T18:42:44.552Z,101459.80
2018-11-21T18:45:51.940Z,101460.81
2018-11-21T18:48:20.061Z,101473.92
2018-11-21T18:50:48.103Z,101461.94
2018-11-21T18:53:16.211Z,101464.62
2018-11-21T18:55:50.348Z,101477.97
2018-11-21T18:58:39.958Z,101472.66
2018-11-21T19:01:08.061Z,101473.66
2018-11-21T19:03:36.160Z,101472.14
2018-11-21T19:06:04.298Z,101481.89
2018-11-21T19:08:32.421Z,101478.11
2018-11-21T19:11:00.496Z,101481.89
2018-11-21T19:13:29.172Z,101484.34
2018-11-21T19:15:57.271Z,101481.44
2018-11-21T19:18:25.312Z,101483.50
2018-11-21T19:20:53.389Z,101484.18
2018-11-21T19:23:21.433Z,101474.84
2018-11-21T19:25:49.532Z,101478.05
2018-11-21T19:28:17.573Z,101488.45
2018-11-21T19:30:45.808Z,101483.28
2018-11-21T19:33:13.866Z,101487.18
2018-11-21T19:35:41.964Z,101488.11
2018-11-21T19:38:10.028Z,101483.72
2018-11-21T19:40:38.131Z,101482.42
2018-11-21T19:43:06.219Z,101486.23
2018-11-21T19:45:34.454Z,101475.55
2018-11-21T19:48:02.611Z,101482.50
2018-11-21T19:50:30.675Z,101489.66
2018-11-21T19:53:18.040Z,101481.72
2018-11-21T19:55:46.135Z,101488.77
2018-11-21T19:58:14.214Z,101482.56
2018-11-21T20:00:42.294Z,101481.91
2018-11-21T20:03:10.341Z,101480.11
2018-11-21T20:05:38.726Z,101493.11
2018-11-21T20:08:07.009Z,101483.94
2018-11-21T20:10:35.214Z,101490.49
2018-11-21T20:13:03.666Z,101487.84
2018-11-21T20:15:31.895Z,101479.64
2018-11-21T20:18:01.290Z,101483.63
2018-11-21T20:20:29.413Z,101489.65
2018-11-21T20:22:57.517Z,101489.82
2018-11-21T20:25:26.137Z,101488.25
2018-11-21T20:27:54.205Z,101479.36
2018-11-21T20:30:23.861Z,101485.73
2018-11-21T20:32:51.974Z,101479.19
2018-11-21T20:35:20.022Z,101487.03
2018-11-21T20:37:48.118Z,101481.92
2018-11-21T20:40:35.559Z,101483.34
2018-11-21T20:43:03.706Z,101480.25
2018-11-21T20:45:31.755Z,101474.76
2018-11-21T20:48:00.793Z,101466.58
2018-11-21T20:50:28.928Z,101484.84
2018-11-21T20:52:57.019Z,101488.80
2018-11-21T20:55:26.798Z,101482.70
2018-11-21T20:57:54.907Z,101474.34
2018-11-21T21:00:24.713Z,101481.92
2018-11-21T21:02:52.811Z,101484.05
2018-11-21T21:05:22.476Z,101478.95
2018-11-21T21:07:50.560Z,101483.77
2018-11-21T21:10:23.207Z,101484.53
2018-11-21T21:12:51.272Z,101494.42
2018-11-21T21:15:19.407Z,101486.99
2018-11-21T21:17:48.289Z,101488.45
2018-11-21T21:20:17.859Z,101487.03
2018-11-21T21:22:46.933Z,101482.13
2018-11-21T21:25:16.659Z,101487.50
2018-11-21T21:27:44.763Z,101480.78
2018-11-21T21:30:18.150Z,101485.77
2018-11-21T21:32:46.939Z,101482.73
2018-11-21T21:35:16.067Z,101473.08
2018-11-21T21:37:44.317Z,101481.07
2018-11-21T21:40:32.231Z,101484.05
2018-11-21T21:43:00.412Z,101479.73
2018-11-21T21:45:29.650Z,101475.84
2018-11-21T21:47:57.918Z,101479.78
2018-11-21T21:50:27.739Z,101479.36
2018-11-21T21:53:15.251Z,101473.72
2018-11-21T21:55:43.320Z,101478.14
2018-11-21T21:58:11.513Z,101468.66
2018-11-21T22:00:39.710Z,101476.70
2018-11-21T22:03:07.854Z,101470.47
2018-11-21T22:05:35.892Z,101474.86
2018-11-21T22:08:03.954Z,101468.54
2018-11-21T22:10:32.013Z,101474.60
2018-11-21T22:13:00.105Z,101476.55
2018-11-21T22:15:29.519Z,101475.61
2018-11-21T22:17:59.215Z,101481.38
2018-11-21T22:20:27.306Z,101476.28
2018-11-21T22:22:55.598Z,101469.66
2018-11-21T22:25:24.375Z,101471.86
2018-11-21T22:27:52.429Z,101477.27
2018-11-21T22:30:21.178Z,101475.19
2018-11-21T22:32:50.004Z,101481.95
2018-11-21T22:35:24.914Z,101483.71
2018-11-21T22:37:51.389Z,101475.55
2018-11-21T22:40:16.370Z,101470.67
2018-11-21T22:42:45.146Z,101476.55
2018-11-21T22:45:14.605Z,101468.59
2018-11-21T22:47:42.999Z,101479.77
2018-11-21T22:50:13.311Z,101488.45
2018-11-21T22:52:41.409Z,101479.57
2018-11-21T22:55:10.328Z,101479.48
2018-11-21T22:57:38.344Z,101482.56
2018-11-21T23:00:10.505Z,101486.78
2018-11-21T23:02:38.571Z,101495.41
2018-11-21T23:05:08.181Z,101488.92
2018-11-21T23:07:36.625Z,101484.95
2018-11-21T23:10:05.564Z,101491.30
2018-11-21T23:12:33.603Z,101494.13
2018-11-21T23:15:01.708Z,101482.55
2018-11-21T23:17:29.817Z,101489.73
2018-11-21T23:19:57.898Z,101484.23
2018-11-21T23:22:26.657Z,101485.63
2018-11-21T23:24:53.988Z,101482.25
2018-11-21T23:27:22.096Z,101478.82
2018-11-21T23:29:50.122Z,101485.00
2018-11-21T23:32:18.217Z,101477.10
2018-11-21T23:34:46.259Z,101476.44
2018-11-21T23:37:14.280Z,101480.24
2018-11-21T23:39:42.346Z,101483.39
2018-11-21T23:42:10.386Z,101481.44
2018-11-21T23:44:38.551Z,101484.28
2018-11-21T23:47:06.636Z,101483.40
2018-11-21T23:49:34.738Z,101488.62
2018-11-21T23:52:02.799Z,101472.27
2018-11-21T23:54:30.876Z,101477.15
2018-11-21T23:57:15.867Z,101476.39
2018-11-21T23:59:27.039Z,101475.45
